Hlavní strana
METAR-TAF:

METAR-TAF

Letiště :

Ohio State University Airport

Columbus, Ohio, Spojené státy americké

zeměpisná šířka: 40-04-41N, zeměpisná délka: 083-04-41W, výška: 275 m

Aktuální stav počasí

Zpráva byla vytvořena před 1 hodinou a 0 minutami, v 23:53 UTC
Severní vítr 21 kt s nárazy do 27 kt
Teplota 6°C
Vlhkost vzduchu 93%
Tlak 1000 hPa
Viditelnost: 16.1 km
Oblačno až skoro zataženo ve výšce 1000 ft
Oblačno až skoro zataženo ve výšce 1500 ft
Zataženo ve výšce 3000 ft

METAR: KOSU 192353Z 01021G27KT 10SM BKN010 BKN015 OVC030 06/05 A2954 RMK AO2 PK WND 36027/2352 RAE51 SLP007 P0002 60049 T00610050 10094 20061 50000

Čas: 20:53 (00:53 UTC)


TAF: chybějící

Stav a předpovědi počasí z více než 4 000 letišť (zprávy METAR a TAF).

Červené a žluté tečky na mapě představují dostupné meteorologické stanice.

Když kurzor umístíte na tečku, zobrazí se název stanice.

Pak kliknutím zobrazíte stav a předpověď počasí.

Chcete-li změnit mapu, kliknutím na zelené tlačítko se znaménkem +mapu přiblížíte, kliknutím na zelené tlačítko se znaménkem – mapu oddálíte a kliknutím na zelené šipky přejdete na sousední mapy.


METAR-TAF: